Time;durP1;ratioP1;P1;durP2;ratioP2;P2;SDS_P1;SDS_P2;PMS_P1;PMS_P2;Temp;Humidity;BMP_temperature;BMP_pressure;BME280_temperature;BME280_humidity;BME280_pressure;Samples;Min_cycle;Max_cycle;Signal;HPM_P1;HPM_P2
2023/12/09 00:00:41;;;;;;;0.30;0.30;;;;;;;;;;6292483;28;20036;-81
2023/12/09 00:03:41;;;;;;;0.30;0.30;;;;;;;;;;6296746;28;20449;-81
2023/12/09 00:06:47;;;;;;;0.20;0.20;;;;;;;;;;6293626;28;20475;-81
2023/12/09 00:09:48;;;;;;;0.30;0.30;;;;;;;;;;6294237;28;20052;-81
2023/12/09 00:12:48;;;;;;;0.20;0.20;;;;;;;;;;6293873;28;20039;-81
2023/12/09 00:15:48;;;;;;;0.23;0.23;;;;;;;;;;6293671;28;20082;-81
2023/12/09 00:18:48;;;;;;;0.20;0.20;;;;;;;;;;6293144;28;20021;-81
2023/12/09 00:21:49;;;;;;;0.20;0.20;;;;;;;;;;6293306;28;20103;-82
2023/12/09 00:24:49;;;;;;;0.30;0.30;;;;;;;;;;6294219;28;20107;-81
2023/12/09 00:27:49;;;;;;;0.30;0.30;;;;;;;;;;6293777;28;20123;-81
2023/12/09 00:30:49;;;;;;;0.20;0.20;;;;;;;;;;6261216;28;20031;-82
2023/12/09 00:33:50;;;;;;;0.30;0.30;;;;;;;;;;6279044;28;20414;-81
2023/12/09 00:36:50;;;;;;;0.30;0.30;;;;;;;;;;6293869;28;20094;-82
2023/12/09 00:39:50;;;;;;;0.20;0.20;;;;;;;;;;6274920;28;20129;-82
2023/12/09 00:42:50;;;;;;;0.30;0.30;;;;;;;;;;6293148;28;20032;-72
2023/12/09 00:45:51;;;;;;;0.20;0.20;;;;;;;;;;6292903;28;20024;-72
2023/12/09 00:48:51;;;;;;;0.30;0.30;;;;;;;;;;6293423;28;20115;-72
2023/12/09 00:51:51;;;;;;;0.30;0.30;;;;;;;;;;6286357;28;20457;-81
2023/12/09 00:54:51;;;;;;;0.30;0.30;;;;;;;;;;6289155;28;20021;-81
2023/12/09 00:57:52;;;;;;;0.30;0.30;;;;;;;;;;6275010;28;20040;-81
2023/12/09 01:00:52;;;;;;;0.20;0.20;;;;;;;;;;6292889;28;20020;-81
2023/12/09 01:03:53;;;;;;;0.30;0.30;;;;;;;;;;6292276;28;20055;-81
2023/12/09 01:06:53;;;;;;;0.30;0.30;;;;;;;;;;6294202;28;20021;-81
2023/12/09 01:09:53;;;;;;;0.30;0.30;;;;;;;;;;6292551;28;20086;-81
2023/12/09 01:12:53;;;;;;;0.27;0.27;;;;;;;;;;6293342;28;20028;-81
2023/12/09 01:15:54;;;;;;;0.37;0.37;;;;;;;;;;6292588;28;20471;-81
2023/12/09 01:18:54;;;;;;;0.27;0.27;;;;;;;;;;6292236;28;20424;-82
2023/12/09 01:21:54;;;;;;;0.30;0.30;;;;;;;;;;6286150;28;20567;-82
2023/12/09 01:24:54;;;;;;;0.30;0.30;;;;;;;;;;6291518;28;20473;-81
2023/12/09 01:27:55;;;;;;;0.30;0.30;;;;;;;;;;6295955;28;20058;-82
2023/12/09 01:30:55;;;;;;;0.20;0.20;;;;;;;;;;6284716;28;20024;-82
2023/12/09 01:33:55;;;;;;;0.30;0.30;;;;;;;;;;6302047;28;20024;-82
2023/12/09 01:36:55;;;;;;;0.30;0.30;;;;;;;;;;6295889;28;20028;-82
2023/12/09 01:39:56;;;;;;;0.30;0.30;;;;;;;;;;6291414;28;20017;-82
2023/12/09 01:42:56;;;;;;;0.20;0.20;;;;;;;;;;6292814;28;20009;-82
2023/12/09 01:46:01;;;;;;;0.30;0.30;;;;;;;;;;6291377;28;20306;-82
2023/12/09 01:49:01;;;;;;;0.30;0.30;;;;;;;;;;6306060;28;20036;-82
2023/12/09 01:52:02;;;;;;;0.20;0.20;;;;;;;;;;6295563;28;20421;-82
2023/12/09 01:55:02;;;;;;;0.30;0.30;;;;;;;;;;6301625;28;20020;-82
2023/12/09 01:58:03;;;;;;;0.30;0.30;;;;;;;;;;6291924;28;20025;-82
2023/12/09 02:01:04;;;;;;;0.30;0.30;;;;;;;;;;6290059;28;20036;-82
2023/12/09 02:04:04;;;;;;;0.30;0.30;;;;;;;;;;6291961;28;20036;-72
2023/12/09 02:07:05;;;;;;;0.30;0.30;;;;;;;;;;6292844;28;20067;-72
2023/12/09 02:10:05;;;;;;;0.20;0.20;;;;;;;;;;6291318;28;20520;-72
2023/12/09 02:13:26;;;;;;;0.30;0.30;;;;;;;;;;6292138;28;20441;-72
2023/12/09 02:16:28;;;;;;;0.30;0.30;;;;;;;;;;6291540;28;20020;-72
2023/12/09 02:19:29;;;;;;;0.30;0.30;;;;;;;;;;6291403;28;20017;-72
2023/12/09 02:22:29;;;;;;;0.30;0.30;;;;;;;;;;6291751;28;20449;-72
2023/12/09 02:25:30;;;;;;;0.30;0.30;;;;;;;;;;6291861;28;20016;-72
2023/12/09 02:28:31;;;;;;;0.30;0.30;;;;;;;;;;6295220;28;20089;-72
2023/12/09 02:31:34;;;;;;;0.30;0.30;;;;;;;;;;6296468;28;20599;-72
2023/12/09 02:34:39;;;;;;;0.30;0.30;;;;;;;;;;6295706;28;20071;-72
2023/12/09 02:37:40;;;;;;;0.30;0.30;;;;;;;;;;6294963;28;20442;-72
2023/12/09 02:40:41;;;;;;;0.30;0.30;;;;;;;;;;6294587;28;20028;-72
2023/12/09 02:43:43;;;;;;;0.30;0.30;;;;;;;;;;6294467;28;20031;-72
2023/12/09 02:46:44;;;;;;;0.30;0.30;;;;;;;;;;6295091;28;20333;-72
2023/12/09 02:49:44;;;;;;;0.20;0.20;;;;;;;;;;6299636;28;20078;-72
2023/12/09 02:52:44;;;;;;;0.20;0.20;;;;;;;;;;6306195;28;20092;-72
2023/12/09 02:55:45;;;;;;;0.30;0.30;;;;;;;;;;6296621;28;20054;-72
2023/12/09 02:58:45;;;;;;;0.30;0.30;;;;;;;;;;6295449;28;20108;-72
2023/12/09 03:01:46;;;;;;;0.30;0.30;;;;;;;;;;6277486;28;20078;-72
2023/12/09 03:04:46;;;;;;;0.30;0.30;;;;;;;;;;6283958;28;20041;-72
2023/12/09 03:07:46;;;;;;;0.20;0.20;;;;;;;;;;6295077;28;20059;-72
2023/12/09 03:10:46;;;;;;;0.30;0.30;;;;;;;;;;6295458;28;20102;-72
2023/12/09 03:13:46;;;;;;;0.30;0.30;;;;;;;;;;6295649;28;20046;-72
2023/12/09 03:16:47;;;;;;;0.30;0.30;;;;;;;;;;6294874;28;20071;-72
2023/12/09 03:19:47;;;;;;;0.20;0.20;;;;;;;;;;6295261;28;20016;-72
2023/12/09 03:22:47;;;;;;;0.30;0.30;;;;;;;;;;6293764;28;20020;-72
2023/12/09 03:25:48;;;;;;;0.30;0.30;;;;;;;;;;6295079;28;20360;-72
2023/12/09 03:28:48;;;;;;;0.30;0.30;;;;;;;;;;6294794;28;20016;-72
2023/12/09 03:31:48;;;;;;;0.30;0.30;;;;;;;;;;6295098;28;20458;-84
2023/12/09 03:34:49;;;;;;;0.30;0.30;;;;;;;;;;6314618;28;20012;-83
2023/12/09 03:37:49;;;;;;;0.30;0.30;;;;;;;;;;6299013;28;20027;-84
2023/12/09 03:40:49;;;;;;;0.30;0.30;;;;;;;;;;6295003;28;20021;-84
2023/12/09 03:43:49;;;;;;;0.30;0.30;;;;;;;;;;6294623;28;20020;-84
2023/12/09 03:46:49;;;;;;;0.30;0.30;;;;;;;;;;6294457;28;20016;-84
2023/12/09 03:49:50;;;;;;;0.30;0.30;;;;;;;;;;6296993;28;20466;-85
2023/12/09 03:52:50;;;;;;;0.30;0.30;;;;;;;;;;6294196;28;20455;-85
2023/12/09 03:55:50;;;;;;;0.30;0.30;;;;;;;;;;6300260;28;20033;-85
2023/12/09 03:58:51;;;;;;;0.30;0.30;;;;;;;;;;6306165;28;20043;-85
2023/12/09 04:01:51;;;;;;;0.30;0.30;;;;;;;;;;6294005;28;20070;-84
2023/12/09 04:04:52;;;;;;;0.30;0.30;;;;;;;;;;6296429;28;20040;-84
2023/12/09 04:07:52;;;;;;;0.30;0.30;;;;;;;;;;6297245;28;20052;-85
2023/12/09 04:10:52;;;;;;;0.20;0.20;;;;;;;;;;6295090;28;20379;-85
2023/12/09 04:13:53;;;;;;;0.30;0.30;;;;;;;;;;6294038;28;20051;-85
2023/12/09 04:16:54;;;;;;;0.30;0.30;;;;;;;;;;6293972;28;20032;-84
2023/12/09 04:19:54;;;;;;;0.20;0.20;;;;;;;;;;6297660;28;20066;-85
2023/12/09 04:22:54;;;;;;;0.30;0.30;;;;;;;;;;6299372;28;20070;-72
2023/12/09 04:25:55;;;;;;;0.27;0.27;;;;;;;;;;6299820;28;20090;-72
2023/12/09 04:28:55;;;;;;;0.20;0.20;;;;;;;;;;6293267;28;20467;-72
2023/12/09 04:31:55;;;;;;;0.30;0.30;;;;;;;;;;6293657;28;20432;-72
2023/12/09 04:34:56;;;;;;;0.30;0.30;;;;;;;;;;6292826;28;20414;-72
2023/12/09 04:37:56;;;;;;;0.30;0.30;;;;;;;;;;6289252;28;20021;-72
2023/12/09 04:40:56;;;;;;;0.30;0.30;;;;;;;;;;6295138;28;20023;-72
2023/12/09 04:43:56;;;;;;;0.30;0.30;;;;;;;;;;6287371;28;20510;-86
2023/12/09 04:46:57;;;;;;;0.30;0.30;;;;;;;;;;6293295;28;20028;-85
2023/12/09 04:49:57;;;;;;;0.30;0.30;;;;;;;;;;6292194;28;20031;-87
2023/12/09 04:52:57;;;;;;;0.20;0.20;;;;;;;;;;6292802;28;20025;-86
2023/12/09 04:55:57;;;;;;;0.20;0.20;;;;;;;;;;6295707;28;20028;-86
2023/12/09 04:58:58;;;;;;;0.20;0.20;;;;;;;;;;6284544;28;20021;-86
2023/12/09 05:01:58;;;;;;;0.30;0.30;;;;;;;;;;6282746;28;20379;-87
2023/12/09 05:04:58;;;;;;;0.27;0.27;;;;;;;;;;6288713;28;20139;-87
2023/12/09 05:07:58;;;;;;;0.30;0.30;;;;;;;;;;6295979;28;20127;-85
2023/12/09 05:10:59;;;;;;;0.30;0.30;;;;;;;;;;6288206;28;20039;-86
2023/12/09 05:13:59;;;;;;;0.20;0.20;;;;;;;;;;6292243;28;20143;-86
2023/12/09 05:16:59;;;;;;;0.20;0.20;;;;;;;;;;6292543;28;20012;-86
2023/12/09 05:20:00;;;;;;;0.30;0.30;;;;;;;;;;6292241;28;20538;-86
2023/12/09 05:23:00;;;;;;;0.30;0.30;;;;;;;;;;6292360;28;20095;-86
2023/12/09 05:26:00;;;;;;;0.20;0.20;;;;;;;;;;6267201;28;20028;-86
2023/12/09 05:29:01;;;;;;;0.30;0.30;;;;;;;;;;6274633;28;20020;-86
2023/12/09 05:32:01;;;;;;;0.20;0.20;;;;;;;;;;6293019;28;20028;-71
2023/12/09 05:35:02;;;;;;;0.20;0.20;;;;;;;;;;6292044;28;20028;-72
2023/12/09 05:38:02;;;;;;;0.30;0.30;;;;;;;;;;6287554;28;20363;-71
2023/12/09 05:41:02;;;;;;;0.27;0.27;;;;;;;;;;6298252;28;20021;-72
2023/12/09 05:44:03;;;;;;;0.20;0.20;;;;;;;;;;6289733;28;20099;-86
2023/12/09 05:47:03;;;;;;;0.30;0.30;;;;;;;;;;6292014;28;20024;-86
2023/12/09 05:50:03;;;;;;;0.20;0.20;;;;;;;;;;6292143;28;20363;-86
2023/12/09 05:53:04;;;;;;;0.23;0.23;;;;;;;;;;6268829;28;20490;-87
2023/12/09 05:56:04;;;;;;;0.30;0.30;;;;;;;;;;6295984;28;20367;-86
2023/12/09 05:59:04;;;;;;;0.20;0.20;;;;;;;;;;6295619;28;20035;-86
2023/12/09 06:02:05;;;;;;;0.30;0.30;;;;;;;;;;6297027;28;20024;-87
2023/12/09 06:05:05;;;;;;;0.30;0.30;;;;;;;;;;6272269;28;20040;-86
2023/12/09 06:08:05;;;;;;;0.30;0.30;;;;;;;;;;6303743;28;20020;-87
2023/12/09 06:11:05;;;;;;;0.30;0.30;;;;;;;;;;6291888;28;20156;-86
2023/12/09 06:14:07;;;;;;;0.20;0.20;;;;;;;;;;6291551;28;20024;-87
2023/12/09 06:17:07;;;;;;;0.30;0.30;;;;;;;;;;6289093;28;20550;-87
2023/12/09 06:20:08;;;;;;;0.30;0.30;;;;;;;;;;6297105;28;20039;-87
2023/12/09 06:23:08;;;;;;;0.30;0.30;;;;;;;;;;6270594;28;20025;-87
2023/12/09 06:26:08;;;;;;;0.20;0.20;;;;;;;;;;6284084;28;20039;-87
2023/12/09 06:29:09;;;;;;;0.30;0.30;;;;;;;;;;6287830;28;20021;-88
2023/12/09 06:32:09;;;;;;;0.30;0.30;;;;;;;;;;6287437;28;20063;-87
2023/12/09 06:35:09;;;;;;;0.20;0.20;;;;;;;;;;6297072;28;20032;-87
2023/12/09 06:38:10;;;;;;;0.20;0.20;;;;;;;;;;6297795;28;20077;-87
2023/12/09 06:41:10;;;;;;;0.20;0.20;;;;;;;;;;6285019;28;20108;-87
2023/12/09 06:44:10;;;;;;;0.20;0.20;;;;;;;;;;6296951;28;20103;-87
2023/12/09 06:47:11;;;;;;;0.20;0.20;;;;;;;;;;6285263;28;20020;-87
2023/12/09 06:50:11;;;;;;;0.27;0.27;;;;;;;;;;6285533;28;20055;-88
2023/12/09 06:53:13;;;;;;;0.20;0.20;;;;;;;;;;6291161;28;20097;-87
2023/12/09 06:56:20;;;;;;;0.20;0.20;;;;;;;;;;6290503;28;20025;-87
2023/12/09 06:59:20;;;;;;;0.30;0.30;;;;;;;;;;6281972;28;20074;-87
2023/12/09 07:02:21;;;;;;;0.20;0.20;;;;;;;;;;6301695;28;20029;-88
2023/12/09 07:05:21;;;;;;;0.30;0.30;;;;;;;;;;6285866;28;20045;-87
2023/12/09 07:08:21;;;;;;;0.30;0.30;;;;;;;;;;6277095;28;20115;-87
2023/12/09 07:11:22;;;;;;;0.30;0.30;;;;;;;;;;6297430;28;20028;-86
2023/12/09 07:14:22;;;;;;;0.30;0.30;;;;;;;;;;6308562;28;20036;-71
2023/12/09 07:17:22;;;;;;;0.20;0.20;;;;;;;;;;6293313;28;20020;-71
2023/12/09 07:20:23;;;;;;;0.30;0.30;;;;;;;;;;6292905;28;20020;-71
2023/12/09 07:23:23;;;;;;;0.20;0.20;;;;;;;;;;6283996;28;20021;-71
2023/12/09 07:26:23;;;;;;;0.20;0.20;;;;;;;;;;6289137;28;20020;-72
2023/12/09 07:29:25;;;;;;;0.20;0.20;;;;;;;;;;6296962;28;20020;-71
2023/12/09 07:32:25;;;;;;;0.20;0.20;;;;;;;;;;6295035;28;20047;-72
2023/12/09 07:35:25;;;;;;;0.20;0.20;;;;;;;;;;6293334;28;20447;-71
2023/12/09 07:38:26;;;;;;;0.23;0.23;;;;;;;;;;6277082;28;20028;-72
2023/12/09 07:41:26;;;;;;;0.20;0.20;;;;;;;;;;6286701;28;20047;-71
2023/12/09 07:44:26;;;;;;;0.20;0.20;;;;;;;;;;6291257;28;20103;-72
2023/12/09 07:47:27;;;;;;;0.20;0.20;;;;;;;;;;6294021;28;20028;-72
2023/12/09 07:50:27;;;;;;;0.20;0.20;;;;;;;;;;6293597;28;20040;-71
2023/12/09 07:53:27;;;;;;;0.20;0.20;;;;;;;;;;6294209;28;20029;-71
2023/12/09 07:56:27;;;;;;;0.20;0.20;;;;;;;;;;6294989;28;20029;-71
2023/12/09 07:59:28;;;;;;;0.20;0.20;;;;;;;;;;6294054;28;20077;-71
2023/12/09 08:02:28;;;;;;;0.23;0.23;;;;;;;;;;6294123;28;20111;-72
2023/12/09 08:05:28;;;;;;;0.20;0.20;;;;;;;;;;6291173;28;20136;-72
2023/12/09 08:08:28;;;;;;;0.20;0.20;;;;;;;;;;6298515;28;20486;-72
2023/12/09 08:11:29;;;;;;;0.20;0.20;;;;;;;;;;6293643;28;20399;-71
2023/12/09 08:14:29;;;;;;;0.20;0.20;;;;;;;;;;6294371;28;20074;-72
2023/12/09 08:17:29;;;;;;;0.20;0.20;;;;;;;;;;6294173;28;20039;-72
2023/12/09 08:20:29;;;;;;;0.20;0.20;;;;;;;;;;6293839;28;20103;-72
2023/12/09 08:23:30;;;;;;;0.20;0.20;;;;;;;;;;6293383;28;20477;-84
2023/12/09 08:26:30;;;;;;;0.20;0.20;;;;;;;;;;6293738;28;20020;-84
2023/12/09 08:29:30;;;;;;;0.30;0.30;;;;;;;;;;6292861;28;20433;-84
2023/12/09 08:32:31;;;;;;;0.20;0.20;;;;;;;;;;6293620;28;20021;-86
2023/12/09 08:35:31;;;;;;;0.20;0.20;;;;;;;;;;6291079;28;20030;-85
2023/12/09 08:38:31;;;;;;;0.20;0.20;;;;;;;;;;6286349;28;20074;-84
2023/12/09 08:41:31;;;;;;;0.20;0.20;;;;;;;;;;6281024;28;20119;-75
2023/12/09 08:44:32;;;;;;;0.20;0.20;;;;;;;;;;6294483;28;20025;-84
2023/12/09 08:47:32;;;;;;;0.20;0.20;;;;;;;;;;6291920;28;20099;-84
2023/12/09 08:50:34;;;;;;;0.20;0.20;;;;;;;;;;6289946;28;20115;-84
2023/12/09 08:53:34;;;;;;;0.20;0.20;;;;;;;;;;6282571;28;20112;-85
2023/12/09 08:56:34;;;;;;;0.20;0.20;;;;;;;;;;6293157;28;20032;-84
2023/12/09 08:59:34;;;;;;;0.20;0.20;;;;;;;;;;6292711;28;20020;-84
2023/12/09 09:02:35;;;;;;;0.20;0.20;;;;;;;;;;6270041;28;20024;-84
2023/12/09 09:05:35;;;;;;;0.20;0.20;;;;;;;;;;6286666;28;20056;-84
2023/12/09 09:08:35;;;;;;;0.20;0.20;;;;;;;;;;6296016;28;20028;-84
2023/12/09 09:11:35;;;;;;;0.30;0.30;;;;;;;;;;6292153;28;20427;-85
2023/12/09 09:14:36;;;;;;;0.20;0.20;;;;;;;;;;6291820;28;20024;-84
2023/12/09 09:17:36;;;;;;;0.20;0.20;;;;;;;;;;6297712;28;20035;-84
2023/12/09 09:20:36;;;;;;;0.20;0.20;;;;;;;;;;6293181;28;20025;-84
2023/12/09 09:23:37;;;;;;;0.20;0.20;;;;;;;;;;6292081;28;20070;-84
2023/12/09 09:26:37;;;;;;;0.20;0.20;;;;;;;;;;6291722;28;20031;-84
2023/12/09 09:29:38;;;;;;;0.20;0.20;;;;;;;;;;6292070;28;20025;-85
2023/12/09 09:32:38;;;;;;;0.20;0.20;;;;;;;;;;6292698;28;20029;-72
2023/12/09 09:35:39;;;;;;;0.20;0.20;;;;;;;;;;6305345;28;20459;-72
2023/12/09 09:38:39;;;;;;;0.20;0.20;;;;;;;;;;6286685;28;20021;-72
2023/12/09 09:41:50;;;;;;;0.20;0.20;;;;;;;;;;6292169;28;20047;-72
2023/12/09 09:44:55;;;;;;;0.20;0.20;;;;;;;;;;6288844;28;20050;-72
2023/12/09 09:48:01;;;;;;;0.20;0.20;;;;;;;;;;6273413;28;20471;-72
2023/12/09 09:51:02;;;;;;;0.20;0.20;;;;;;;;;;6290728;28;20054;-72
2023/12/09 09:54:09;;;;;;;0.20;0.20;;;;;;;;;;6291683;28;20017;-84
2023/12/09 09:57:10;;;;;;;0.20;0.20;;;;;;;;;;6280700;28;20035;-84
2023/12/09 10:00:15;;;;;;;0.20;0.20;;;;;;;;;;6292720;28;20021;-83
2023/12/09 10:03:15;;;;;;;0.20;0.20;;;;;;;;;;6291579;28;20094;-84
2023/12/09 10:06:16;;;;;;;0.20;0.20;;;;;;;;;;6291510;28;20429;-83
2023/12/09 10:09:16;;;;;;;0.20;0.20;;;;;;;;;;6291547;28;20040;-84
2023/12/09 10:12:16;;;;;;;0.20;0.20;;;;;;;;;;6281098;28;20028;-84
2023/12/09 10:15:17;;;;;;;0.20;0.20;;;;;;;;;;6295746;28;20501;-84
2023/12/09 10:18:20;;;;;;;0.20;0.20;;;;;;;;;;6287980;28;20065;-84
2023/12/09 10:21:20;;;;;;;0.20;0.20;;;;;;;;;;6287827;28;20031;-84
2023/12/09 10:24:20;;;;;;;0.20;0.20;;;;;;;;;;6291600;28;20087;-84
2023/12/09 10:27:24;;;;;;;0.20;0.20;;;;;;;;;;6288982;28;20288;-84
2023/12/09 10:30:25;;;;;;;0.20;0.20;;;;;;;;;;6292037;28;20020;-85
2023/12/09 10:33:25;;;;;;;0.20;0.20;;;;;;;;;;6288602;28;20074;-84
2023/12/09 10:36:25;;;;;;;0.20;0.20;;;;;;;;;;6290292;28;20429;-85
2023/12/09 10:39:26;;;;;;;0.20;0.20;;;;;;;;;;6289103;28;20033;-84
2023/12/09 10:42:26;;;;;;;0.20;0.20;;;;;;;;;;6290068;28;20561;-84
2023/12/09 10:45:27;;;;;;;0.20;0.20;;;;;;;;;;6280694;28;20483;-84
2023/12/09 10:48:28;;;;;;;0.20;0.20;;;;;;;;;;6303199;28;20028;-85
2023/12/09 10:51:28;;;;;;;0.20;0.20;;;;;;;;;;6291832;28;20117;-83
2023/12/09 10:54:29;;;;;;;0.20;0.20;;;;;;;;;;6286060;28;20537;-73
2023/12/09 10:57:29;;;;;;;0.20;0.20;;;;;;;;;;6299549;28;20568;-73
2023/12/09 11:00:30;;;;;;;0.20;0.20;;;;;;;;;;6290127;28;20103;-72
2023/12/09 11:03:31;;;;;;;0.20;0.20;;;;;;;;;;6293465;28;20421;-85
2023/12/09 11:06:35;;;;;;;0.20;0.20;;;;;;;;;;6282492;28;20016;-84
2023/12/09 11:09:36;;;;;;;0.20;0.20;;;;;;;;;;6293294;28;20059;-85
2023/12/09 11:12:37;;;;;;;0.20;0.20;;;;;;;;;;6294117;28;20028;-73
2023/12/09 11:15:37;;;;;;;0.20;0.20;;;;;;;;;;6293496;28;20033;-73
2023/12/09 11:18:46;;;;;;;0.20;0.20;;;;;;;;;;6291252;28;20483;-73
2023/12/09 11:21:47;;;;;;;0.20;0.20;;;;;;;;;;6299208;28;20017;-73
2023/12/09 11:24:47;;;;;;;0.20;0.20;;;;;;;;;;6293608;28;20467;-73
2023/12/09 11:27:51;;;;;;;0.20;0.20;;;;;;;;;;6306183;28;20021;-72
2023/12/09 11:30:55;;;;;;;0.20;0.20;;;;;;;;;;6293031;28;20504;-73
2023/12/09 11:33:55;;;;;;;0.20;0.20;;;;;;;;;;6293982;28;20028;-72
2023/12/09 11:36:56;;;;;;;0.20;0.20;;;;;;;;;;6295890;28;20479;-73
2023/12/09 11:39:57;;;;;;;0.20;0.20;;;;;;;;;;6300211;28;20033;-72
2023/12/09 11:42:58;;;;;;;0.20;0.20;;;;;;;;;;6299073;28;20102;-72
2023/12/09 11:45:59;;;;;;;0.20;0.20;;;;;;;;;;6273177;28;20032;-72
2023/12/09 11:48:59;;;;;;;0.20;0.20;;;;;;;;;;6291048;28;20040;-73
2023/12/09 11:52:00;;;;;;;0.20;0.20;;;;;;;;;;6288933;28;20095;-72
2023/12/09 11:55:00;;;;;;;0.20;0.20;;;;;;;;;;6293108;28;20031;-72
2023/12/09 11:58:01;;;;;;;0.20;0.20;;;;;;;;;;6292987;28;20028;-72
2023/12/09 12:01:01;;;;;;;0.20;0.20;;;;;;;;;;6292272;28;20025;-73
2023/12/09 12:04:01;;;;;;;0.20;0.20;;;;;;;;;;6290630;28;20044;-73
2023/12/09 12:07:01;;;;;;;0.20;0.20;;;;;;;;;;6299529;28;20074;-73
2023/12/09 12:10:02;;;;;;;0.20;0.20;;;;;;;;;;6286638;28;20040;-73
2023/12/09 12:13:03;;;;;;;0.20;0.20;;;;;;;;;;6299594;28;20020;-73
2023/12/09 12:16:03;;;;;;;0.20;0.20;;;;;;;;;;6299417;28;20118;-73
2023/12/09 12:19:04;;;;;;;0.20;0.20;;;;;;;;;;6293271;28;20020;-72
2023/12/09 12:22:04;;;;;;;0.20;0.20;;;;;;;;;;6293985;28;20017;-83
2023/12/09 12:25:06;;;;;;;0.20;0.20;;;;;;;;;;6286848;28;20027;-82
2023/12/09 12:28:06;;;;;;;0.20;0.20;;;;;;;;;;6293102;28;20036;-82
2023/12/09 12:31:10;;;;;;;0.20;0.20;;;;;;;;;;6275417;28;20021;-82
2023/12/09 12:34:14;;;;;;;0.20;0.20;;;;;;;;;;6293227;28;20551;-82
2023/12/09 12:37:15;;;;;;;0.20;0.20;;;;;;;;;;6284437;28;20438;-81
2023/12/09 12:40:15;;;;;;;0.20;0.20;;;;;;;;;;6275327;28;20331;-81
2023/12/09 12:43:16;;;;;;;0.20;0.20;;;;;;;;;;6282887;28;20016;-82
2023/12/09 12:46:17;;;;;;;0.20;0.20;;;;;;;;;;6292760;28;20023;-81
2023/12/09 12:49:18;;;;;;;0.20;0.20;;;;;;;;;;6292736;28;20481;-81
2023/12/09 12:52:18;;;;;;;0.20;0.20;;;;;;;;;;6292206;28;20034;-81
2023/12/09 12:55:18;;;;;;;0.20;0.20;;;;;;;;;;6274483;28;20482;-81
2023/12/09 12:58:18;;;;;;;0.20;0.20;;;;;;;;;;6292657;28;20039;-80
2023/12/09 13:01:19;;;;;;;0.20;0.20;;;;;;;;;;6295851;28;20012;-81
2023/12/09 13:04:19;;;;;;;0.20;0.20;;;;;;;;;;6289643;28;20072;-81
2023/12/09 13:07:19;;;;;;;0.20;0.20;;;;;;;;;;6297969;28;20407;-80
2023/12/09 13:10:20;;;;;;;0.20;0.20;;;;;;;;;;6291860;28;20051;-80
2023/12/09 13:13:20;;;;;;;0.20;0.20;;;;;;;;;;6293650;28;20049;-81
2023/12/09 13:16:20;;;;;;;0.20;0.20;;;;;;;;;;6294822;28;20020;-80
2023/12/09 13:19:21;;;;;;;0.20;0.20;;;;;;;;;;6297381;28;20020;-81
2023/12/09 13:22:21;;;;;;;0.20;0.20;;;;;;;;;;6282522;28;20097;-81
2023/12/09 13:25:21;;;;;;;0.20;0.20;;;;;;;;;;6296007;28;20020;-81
2023/12/09 13:28:23;;;;;;;0.20;0.20;;;;;;;;;;6298357;28;20027;-80
2023/12/09 13:31:23;;;;;;;0.20;0.20;;;;;;;;;;6291043;28;20406;-81
2023/12/09 13:34:23;;;;;;;0.20;0.20;;;;;;;;;;6283813;28;20024;-72
2023/12/09 13:37:24;;;;;;;0.20;0.20;;;;;;;;;;6292212;28;20022;-72
2023/12/09 13:40:25;;;;;;;0.20;0.20;;;;;;;;;;6291526;28;20040;-72
2023/12/09 13:43:25;;;;;;;0.20;0.20;;;;;;;;;;6288339;28;20742;-72
2023/12/09 13:46:26;;;;;;;0.20;0.20;;;;;;;;;;6288044;28;20546;-71
2023/12/09 13:49:26;;;;;;;0.20;0.20;;;;;;;;;;6291459;28;20028;-72
2023/12/09 13:52:28;;;;;;;0.20;0.20;;;;;;;;;;6273515;28;20052;-72
2023/12/09 13:55:29;;;;;;;0.20;0.20;;;;;;;;;;6291548;28;20028;-72
2023/12/09 13:58:29;;;;;;;0.20;0.20;;;;;;;;;;6289139;28;20035;-72
2023/12/09 14:01:29;;;;;;;0.20;0.20;;;;;;;;;;6289428;28;20398;-72
2023/12/09 14:04:30;;;;;;;0.20;0.20;;;;;;;;;;6291160;28;20047;-72
2023/12/09 14:07:30;;;;;;;0.20;0.20;;;;;;;;;;6302519;28;20106;-72
2023/12/09 14:10:30;;;;;;;0.20;0.20;;;;;;;;;;6295231;28;20033;-73
2023/12/09 14:13:31;;;;;;;0.20;0.20;;;;;;;;;;6291377;28;20021;-72
2023/12/09 14:16:31;;;;;;;0.20;0.20;;;;;;;;;;6284757;28;20435;-72
2023/12/09 14:19:31;;;;;;;0.20;0.20;;;;;;;;;;6291176;28;20020;-72
2023/12/09 14:22:31;;;;;;;0.20;0.20;;;;;;;;;;6293594;28;20029;-72
2023/12/09 14:25:32;;;;;;;0.20;0.20;;;;;;;;;;6296720;28;20024;-72
2023/12/09 14:28:32;;;;;;;0.23;0.23;;;;;;;;;;6296159;28;20648;-72
2023/12/09 14:31:33;;;;;;;0.20;0.20;;;;;;;;;;6296090;28;20381;-72
2023/12/09 14:34:33;;;;;;;0.20;0.20;;;;;;;;;;6292080;28;20028;-80
2023/12/09 14:37:33;;;;;;;0.20;0.20;;;;;;;;;;6296634;28;20021;-79
2023/12/09 14:40:34;;;;;;;0.20;0.20;;;;;;;;;;6295138;28;20082;-80
2023/12/09 14:43:34;;;;;;;0.20;0.20;;;;;;;;;;6267115;28;20036;-73
2023/12/09 14:46:34;;;;;;;0.20;0.20;;;;;;;;;;6295366;28;20020;-73
2023/12/09 14:49:35;;;;;;;0.20;0.20;;;;;;;;;;6272750;28;20478;-71
2023/12/09 14:52:35;;;;;;;0.20;0.20;;;;;;;;;;6292591;28;20028;-71
2023/12/09 14:55:35;;;;;;;0.20;0.20;;;;;;;;;;6293768;28;20103;-72
2023/12/09 14:58:36;;;;;;;0.20;0.20;;;;;;;;;;6286624;28;20139;-73
2023/12/09 15:01:36;;;;;;;0.20;0.20;;;;;;;;;;6295686;28;20031;-71
2023/12/09 15:04:36;;;;;;;0.20;0.20;;;;;;;;;;6299462;28;20049;-71
2023/12/09 15:07:37;;;;;;;0.20;0.20;;;;;;;;;;6297224;28;20056;-73
2023/12/09 15:10:37;;;;;;;0.20;0.20;;;;;;;;;;6296757;28;20109;-73
2023/12/09 15:13:38;;;;;;;0.20;0.20;;;;;;;;;;6295876;28;20028;-74
2023/12/09 15:16:38;;;;;;;0.20;0.20;;;;;;;;;;6282734;28;20033;-74
2023/12/09 15:19:38;;;;;;;0.20;0.20;;;;;;;;;;6296821;28;20066;-75
2023/12/09 15:22:39;;;;;;;0.20;0.20;;;;;;;;;;6294333;28;20055;-73
2023/12/09 15:25:39;;;;;;;0.20;0.20;;;;;;;;;;6292440;28;20071;-74
2023/12/09 15:28:39;;;;;;;0.20;0.20;;;;;;;;;;6289943;28;20028;-73
2023/12/09 15:31:40;;;;;;;0.20;0.20;;;;;;;;;;6278862;28;20024;-72
2023/12/09 15:34:40;;;;;;;0.20;0.20;;;;;;;;;;6292447;28;20529;-70
2023/12/09 15:37:41;;;;;;;0.27;0.27;;;;;;;;;;6284599;28;20027;-71
2023/12/09 15:40:42;;;;;;;0.20;0.20;;;;;;;;;;6294825;28;20028;-72
2023/12/09 15:43:43;;;;;;;0.20;0.20;;;;;;;;;;6294172;28;20075;-72
2023/12/09 15:46:43;;;;;;;0.20;0.20;;;;;;;;;;6297454;28;20020;-71
2023/12/09 15:49:44;;;;;;;0.20;0.20;;;;;;;;;;6294031;28;20395;-72
2023/12/09 15:52:44;;;;;;;0.20;0.20;;;;;;;;;;6269983;28;20104;-77
2023/12/09 15:55:48;;;;;;;0.20;0.20;;;;;;;;;;6294366;28;20024;-77
2023/12/09 15:58:48;;;;;;;0.20;0.20;;;;;;;;;;6294805;28;20131;-77
2023/12/09 16:01:51;;;;;;;0.20;0.20;;;;;;;;;;6293735;28;20020;-71
2023/12/09 16:04:51;;;;;;;0.20;0.20;;;;;;;;;;6297739;28;20060;-72
2023/12/09 16:07:55;;;;;;;0.20;0.20;;;;;;;;;;6287131;28;20395;-71
2023/12/09 16:10:55;;;;;;;0.20;0.20;;;;;;;;;;6291554;28;20027;-72
2023/12/09 16:13:55;;;;;;;0.20;0.20;;;;;;;;;;6292852;28;20048;-71
2023/12/09 16:16:55;;;;;;;0.20;0.20;;;;;;;;;;6293581;28;20463;-71
2023/12/09 16:19:56;;;;;;;0.20;0.20;;;;;;;;;;6293312;28;20021;-74
2023/12/09 16:22:56;;;;;;;0.20;0.20;;;;;;;;;;6293413;28;20020;-74
2023/12/09 16:25:56;;;;;;;0.20;0.20;;;;;;;;;;6290187;28;20024;-74
2023/12/09 16:28:57;;;;;;;0.20;0.20;;;;;;;;;;6273956;28;20488;-73
2023/12/09 16:31:57;;;;;;;0.30;0.30;;;;;;;;;;6287069;28;20513;-73
2023/12/09 16:34:57;;;;;;;0.20;0.20;;;;;;;;;;6282606;28;20024;-73
2023/12/09 16:37:57;;;;;;;0.20;0.20;;;;;;;;;;6291148;28;20077;-73
2023/12/09 16:40:58;;;;;;;0.20;0.20;;;;;;;;;;6293602;28;20434;-73
2023/12/09 16:43:58;;;;;;;0.20;0.20;;;;;;;;;;6290078;28;20427;-73
2023/12/09 16:46:59;;;;;;;0.20;0.20;;;;;;;;;;6300615;28;20012;-73
2023/12/09 16:49:59;;;;;;;0.20;0.20;;;;;;;;;;6295263;28;20467;-73
2023/12/09 16:53:00;;;;;;;0.20;0.20;;;;;;;;;;6299204;28;20017;-78
2023/12/09 16:56:00;;;;;;;0.20;0.20;;;;;;;;;;6296365;28;20058;-78
2023/12/09 16:59:00;;;;;;;0.23;0.23;;;;;;;;;;6266965;28;20021;-78
2023/12/09 17:02:00;;;;;;;0.20;0.20;;;;;;;;;;6294018;28;20048;-78
2023/12/09 17:05:01;;;;;;;0.20;0.20;;;;;;;;;;6290575;28;20407;-77
2023/12/09 17:08:01;;;;;;;0.20;0.20;;;;;;;;;;6297520;28;20013;-77
2023/12/09 17:11:01;;;;;;;0.20;0.20;;;;;;;;;;6271898;28;20028;-77
2023/12/09 17:14:02;;;;;;;0.20;0.20;;;;;;;;;;6286443;28;20025;-77
2023/12/09 17:17:03;;;;;;;0.30;0.30;;;;;;;;;;6278495;28;20028;-77
2023/12/09 17:20:04;;;;;;;0.25;0.25;;;;;;;;;;6283691;28;20028;-77
2023/12/09 17:23:04;;;;;;;0.20;0.20;;;;;;;;;;6292310;28;20103;-72
2023/12/09 17:26:05;;;;;;;0.20;0.20;;;;;;;;;;6289153;28;20099;-72
2023/12/09 17:29:06;;;;;;;0.20;0.20;;;;;;;;;;6293800;28;20059;-73
2023/12/09 17:32:06;;;;;;;0.20;0.20;;;;;;;;;;6290799;28;20386;-72
2023/12/09 17:35:08;;;;;;;0.20;0.20;;;;;;;;;;6293599;28;20019;-73
2023/12/09 17:38:08;;;;;;;0.20;0.20;;;;;;;;;;6288523;28;20111;-73
2023/12/09 17:41:08;;;;;;;0.20;0.20;;;;;;;;;;6291841;28;20069;-73
2023/12/09 17:44:09;;;;;;;0.20;0.20;;;;;;;;;;6292158;28;20012;-73
2023/12/09 17:47:09;;;;;;;0.20;0.20;;;;;;;;;;6291225;28;20016;-73
2023/12/09 17:50:10;;;;;;;0.20;0.20;;;;;;;;;;6291849;28;20422;-73
2023/12/09 17:53:15;;;;;;;0.20;0.20;;;;;;;;;;6273815;28;20530;-73
2023/12/09 17:56:15;;;;;;;0.20;0.20;;;;;;;;;;6275451;28;20106;-73
2023/12/09 17:59:16;;;;;;;0.20;0.20;;;;;;;;;;6281146;28;20301;-73
2023/12/09 18:02:16;;;;;;;0.20;0.20;;;;;;;;;;6285950;28;20631;-73